createdAt,value
2017-03-11T00:00:53.126Z,0
2017-03-11T00:02:06.232Z,0
2017-03-11T00:03:18.736Z,0
2017-03-11T00:04:32.487Z,0
2017-03-11T00:05:46.172Z,0
2017-03-11T00:06:59.262Z,0
2017-03-11T00:08:12.360Z,0
2017-03-11T00:09:26.075Z,0
2017-03-11T00:10:39.773Z,0
2017-03-11T00:11:53.475Z,0
2017-03-11T00:13:07.174Z,0
2017-03-11T00:14:20.930Z,0
2017-03-11T00:15:34.640Z,0
2017-03-11T00:16:47.705Z,0
2017-03-11T00:18:01.429Z,0
2017-03-11T00:19:14.551Z,0
2017-03-11T00:20:28.239Z,0
2017-03-11T00:21:41.898Z,0
2017-03-11T00:22:55.586Z,0
2017-03-11T00:24:09.314Z,0
2017-03-11T00:25:23.025Z,0
2017-03-11T00:26:36.757Z,0
2017-03-11T00:27:50.437Z,0
2017-03-11T00:29:04.120Z,0
2017-03-11T00:30:17.788Z,0
2017-03-11T00:31:30.970Z,0
2017-03-11T00:32:44.652Z,0
2017-03-11T00:33:57.756Z,0
2017-03-11T00:35:11.443Z,0
2017-03-11T00:36:25.177Z,0
2017-03-11T00:37:38.877Z,0
2017-03-11T00:38:52.578Z,0
2017-03-11T00:40:05.671Z,0
2017-03-11T00:41:19.356Z,0
2017-03-11T00:42:33.100Z,0
2017-03-11T00:43:46.211Z,0
2017-03-11T00:44:59.895Z,0
2017-03-11T00:46:13.611Z,0
2017-03-11T00:47:27.322Z,0
2017-03-11T00:48:41.055Z,0
2017-03-11T00:49:54.764Z,0
2017-03-11T00:51:08.440Z,0
2017-03-11T00:52:21.589Z,0
2017-03-11T00:53:35.288Z,0
2017-03-11T00:54:49.021Z,0
2017-03-11T00:56:02.739Z,0
2017-03-11T00:57:16.445Z,0
2017-03-11T00:58:29.655Z,0
2017-03-11T00:59:42.753Z,0
2017-03-11T01:00:55.853Z,0
2017-03-11T01:02:09.562Z,0
2017-03-11T01:03:23.279Z,0
2017-03-11T01:04:37.104Z,0
2017-03-11T01:05:50.845Z,0
2017-03-11T01:07:03.943Z,0
2017-03-11T01:08:16.587Z,0
2017-03-11T01:09:30.333Z,0
2017-03-11T01:10:42.824Z,0
2017-03-11T01:11:56.550Z,0
2017-03-11T01:13:10.231Z,0
2017-03-11T01:14:24.446Z,0
2017-03-11T01:15:38.248Z,0
2017-03-11T01:16:51.927Z,0
2017-03-11T01:18:05.697Z,0
2017-03-11T01:19:19.450Z,0
2017-03-11T01:20:33.550Z,0
2017-03-11T01:21:47.240Z,0
2017-03-11T01:23:00.919Z,0
2017-03-11T01:24:15.211Z,0
2017-03-11T01:25:29.012Z,0
2017-03-11T01:26:41.663Z,0
2017-03-11T01:27:55.381Z,0
2017-03-11T01:29:09.203Z,0
2017-03-11T01:30:23.436Z,0
2017-03-11T01:31:37.222Z,0
2017-03-11T01:32:50.942Z,0
2017-03-11T01:34:04.715Z,0
2017-03-11T01:35:17.270Z,0
2017-03-11T01:36:31.493Z,0
2017-03-11T01:37:45.198Z,0
2017-03-11T01:38:58.892Z,0
2017-03-11T01:40:12.186Z,0
2017-03-11T01:41:25.922Z,0
2017-03-11T01:42:39.756Z,0
2017-03-11T01:43:53.429Z,0
2017-03-11T01:45:07.150Z,0
2017-03-11T01:46:21.377Z,0
2017-03-11T01:47:35.184Z,0
2017-03-11T01:48:46.499Z,0
2017-03-11T01:50:00.208Z,0
2017-03-11T01:51:13.911Z,0
2017-03-11T01:52:28.119Z,0
2017-03-11T01:53:41.874Z,0
2017-03-11T01:54:55.563Z,0
2017-03-11T01:56:09.367Z,0
2017-03-11T01:57:23.108Z,0
2017-03-11T01:58:37.047Z,0
2017-03-11T01:59:50.771Z,0
2017-03-11T02:01:04.482Z,0
2017-03-11T02:02:17.362Z,0
2017-03-11T02:03:31.119Z,0
2017-03-11T02:04:44.887Z,0
2017-03-11T02:05:58.588Z,0
2017-03-11T02:07:12.291Z,0
2017-03-11T02:08:25.974Z,0
2017-03-11T02:09:39.782Z,0
2017-03-11T02:10:53.508Z,0
2017-03-11T02:12:06.822Z,0
2017-03-11T02:13:20.344Z,0
2017-03-11T02:14:34.665Z,0
2017-03-11T02:15:48.562Z,0
2017-03-11T02:17:02.685Z,0
2017-03-11T02:18:17.044Z,0
2017-03-11T02:19:31.157Z,0
2017-03-11T02:20:45.192Z,0
2017-03-11T02:21:59.142Z,0
2017-03-11T02:23:13.036Z,0
2017-03-11T02:24:27.424Z,0
2017-03-11T02:25:40.376Z,0
2017-03-11T02:26:54.700Z,0
2017-03-11T02:28:09.007Z,0
2017-03-11T02:29:23.366Z,0
2017-03-11T02:30:37.593Z,0
2017-03-11T02:31:51.262Z,0
2017-03-11T02:33:05.587Z,0
2017-03-11T02:34:20.016Z,0
2017-03-11T02:35:34.305Z,0
2017-03-11T02:36:48.328Z,0
2017-03-11T02:38:02.338Z,0
2017-03-11T02:39:16.657Z,0
2017-03-11T02:40:30.407Z,0
2017-03-11T02:41:43.366Z,0
2017-03-11T02:42:57.579Z,0
2017-03-11T02:44:11.930Z,0
2017-03-11T02:45:26.301Z,0
2017-03-11T02:46:39.922Z,0
2017-03-11T02:47:54.141Z,0
2017-03-11T02:49:08.452Z,0
2017-03-11T02:50:22.824Z,0
2017-03-11T02:51:36.526Z,0
2017-03-11T02:52:50.898Z,0
2017-03-11T02:54:04.570Z,0
2017-03-11T02:55:18.297Z,0
2017-03-11T02:56:32.670Z,0
2017-03-11T02:57:46.822Z,0
2017-03-11T02:59:00.945Z,0
2017-03-11T03:00:15.234Z,0
2017-03-11T03:01:28.981Z,0
2017-03-11T03:02:43.035Z,0
2017-03-11T03:03:56.499Z,0
2017-03-11T03:05:10.735Z,0
2017-03-11T03:06:24.488Z,0
2017-03-11T03:07:38.612Z,0
2017-03-11T03:08:52.729Z,0
2017-03-11T03:10:06.439Z,0
2017-03-11T03:11:20.175Z,0
2017-03-11T03:12:34.464Z,0
2017-03-11T03:13:48.812Z,0
2017-03-11T03:15:03.227Z,0
2017-03-11T03:16:17.817Z,0
2017-03-11T03:17:32.129Z,0
2017-03-11T03:18:46.445Z,0
2017-03-11T03:20:00.807Z,0
2017-03-11T03:21:15.187Z,0
2017-03-11T03:22:29.533Z,0
2017-03-11T03:23:43.902Z,0
2017-03-11T03:24:58.231Z,0
2017-03-11T03:26:12.604Z,0
2017-03-11T03:27:26.954Z,0
2017-03-11T03:28:41.217Z,0
2017-03-11T03:29:55.588Z,0
2017-03-11T03:31:09.998Z,0
2017-03-11T03:32:24.355Z,0
2017-03-11T03:33:38.684Z,0
2017-03-11T03:34:53.049Z,0
2017-03-11T03:36:07.369Z,0
2017-03-11T03:37:21.757Z,0
2017-03-11T03:38:35.451Z,0
2017-03-11T03:39:49.851Z,0
2017-03-11T03:41:04.236Z,0
2017-03-11T03:42:18.650Z,0
2017-03-11T03:43:32.337Z,0
2017-03-11T03:44:45.982Z,0
2017-03-11T03:45:59.745Z,0
2017-03-11T03:47:13.465Z,0
2017-03-11T03:48:28.006Z,0
2017-03-11T03:49:42.324Z,0
2017-03-11T03:50:56.625Z,0
2017-03-11T03:52:10.896Z,0
2017-03-11T03:53:24.649Z,0
2017-03-11T03:54:38.255Z,0
2017-03-11T03:55:52.589Z,0
2017-03-11T03:57:06.245Z,0
2017-03-11T03:58:19.992Z,0
2017-03-11T03:59:33.694Z,0
2017-03-11T04:00:46.624Z,0
2017-03-11T04:02:00.929Z,0
2017-03-11T04:03:14.681Z,0
2017-03-11T04:04:29.090Z,0
2017-03-11T04:05:42.016Z,0
2017-03-11T04:06:56.344Z,0
2017-03-11T04:08:10.606Z,0
2017-03-11T04:09:24.384Z,0
2017-03-11T04:10:38.663Z,0
2017-03-11T04:11:53.031Z,0
2017-03-11T04:13:07.420Z,0
2017-03-11T04:14:21.173Z,0
2017-03-11T04:15:34.845Z,0
2017-03-11T04:16:49.055Z,0
2017-03-11T04:18:03.397Z,0
2017-03-11T04:19:17.694Z,0
2017-03-11T04:20:32.042Z,0
2017-03-11T04:21:46.348Z,0
2017-03-11T04:23:00.689Z,0
2017-03-11T04:24:15.056Z,0
2017-03-11T04:25:28.791Z,0
2017-03-11T04:26:43.094Z,0
2017-03-11T04:27:56.861Z,0
2017-03-11T04:29:11.227Z,0
2017-03-11T04:30:25.681Z,0
2017-03-11T04:31:40.034Z,0
2017-03-11T04:32:54.463Z,0
2017-03-11T04:34:08.907Z,0
2017-03-11T04:35:23.219Z,0
2017-03-11T04:36:37.476Z,0
2017-03-11T04:37:51.795Z,0
2017-03-11T04:39:06.141Z,0
2017-03-11T04:40:19.884Z,0
2017-03-11T04:41:34.212Z,0
2017-03-11T04:42:48.590Z,0
2017-03-11T04:44:03.010Z,0
2017-03-11T04:45:16.687Z,0
2017-03-11T04:46:30.380Z,0
2017-03-11T04:47:44.710Z,0
2017-03-11T04:48:59.034Z,0
2017-03-11T04:50:11.450Z,0
2017-03-11T04:51:24.504Z,0
2017-03-11T04:52:38.148Z,0
2017-03-11T04:53:52.465Z,0
2017-03-11T04:55:06.700Z,0
2017-03-11T04:56:21.038Z,0
2017-03-11T04:57:35.399Z,0
2017-03-11T04:58:49.742Z,0
2017-03-11T05:00:04.056Z,0
2017-03-11T05:01:18.451Z,0
2017-03-11T05:02:32.870Z,0
2017-03-11T05:03:47.179Z,0
2017-03-11T05:05:01.480Z,0
2017-03-11T05:06:15.251Z,0
2017-03-11T05:07:29.444Z,0
2017-03-11T05:08:43.443Z,0
2017-03-11T05:09:57.364Z,0
2017-03-11T05:11:11.327Z,0
2017-03-11T05:12:25.622Z,0
2017-03-11T05:13:39.608Z,0
2017-03-11T05:14:53.459Z,0
2017-03-11T05:16:07.440Z,0
2017-03-11T05:17:21.415Z,0
2017-03-11T05:18:35.594Z,0
2017-03-11T05:19:48.694Z,0
2017-03-11T05:21:02.426Z,0
2017-03-11T05:22:16.719Z,0
2017-03-11T05:23:29.331Z,0
2017-03-11T05:24:43.148Z,0
2017-03-11T05:25:56.864Z,0
2017-03-11T05:27:10.561Z,0
2017-03-11T05:28:24.237Z,0
2017-03-11T05:29:37.999Z,0
2017-03-11T05:30:51.847Z,0
2017-03-11T05:32:05.755Z,0
2017-03-11T05:33:19.520Z,0
2017-03-11T05:34:33.763Z,0
2017-03-11T05:35:46.887Z,0
2017-03-11T05:37:00.596Z,0
2017-03-11T05:38:14.839Z,0
2017-03-11T05:39:28.646Z,0
2017-03-11T05:40:41.303Z,0
2017-03-11T05:41:54.385Z,0
2017-03-11T05:43:08.120Z,0
2017-03-11T05:44:22.263Z,0
2017-03-11T05:45:36.026Z,0
2017-03-11T05:46:49.719Z,0
2017-03-11T05:48:03.470Z,0
2017-03-11T05:49:17.184Z,0
2017-03-11T05:50:30.772Z,0
2017-03-11T05:51:44.485Z,0
2017-03-11T05:52:58.195Z,0
2017-03-11T05:54:12.052Z,0
2017-03-11T05:55:25.806Z,0
2017-03-11T05:56:39.543Z,0
2017-03-11T05:57:52.686Z,0
2017-03-11T05:59:06.444Z,0
2017-03-11T06:00:20.542Z,0
2017-03-11T06:01:34.324Z,0
2017-03-11T06:02:48.014Z,0
2017-03-11T06:04:01.721Z,0
2017-03-11T06:05:14.816Z,0
2017-03-11T06:06:28.722Z,0
2017-03-11T06:07:41.833Z,0
2017-03-11T06:08:55.511Z,0
2017-03-11T06:10:08.629Z,0
2017-03-11T06:11:22.422Z,0
2017-03-11T06:12:36.266Z,0
2017-03-11T06:13:49.962Z,0
2017-03-11T06:15:03.648Z,0
2017-03-11T06:16:17.380Z,0
2017-03-11T06:17:30.522Z,0
2017-03-11T06:18:44.217Z,0
2017-03-11T06:19:57.879Z,0
2017-03-11T06:21:11.554Z,0
2017-03-11T06:22:25.245Z,0
2017-03-11T06:23:38.330Z,0
2017-03-11T06:24:51.996Z,0
2017-03-11T06:26:05.704Z,0
2017-03-11T06:27:19.369Z,0
2017-03-11T06:28:33.080Z,0
2017-03-11T06:29:46.753Z,0
2017-03-11T06:31:00.460Z,0
2017-03-11T06:32:14.158Z,0
2017-03-11T06:33:27.880Z,0
2017-03-11T06:34:41.588Z,0
2017-03-11T06:35:55.323Z,0
2017-03-11T06:37:09.028Z,0
2017-03-11T06:38:22.781Z,0
2017-03-11T06:39:36.509Z,0
2017-03-11T06:40:50.182Z,0
2017-03-11T06:42:03.868Z,0
2017-03-11T06:43:17.551Z,0
2017-03-11T06:44:31.255Z,0
2017-03-11T06:45:44.952Z,0
2017-03-11T06:46:58.641Z,0
2017-03-11T06:48:12.323Z,0
2017-03-11T06:49:26.009Z,0
2017-03-11T06:50:39.688Z,0
2017-03-11T06:51:53.392Z,0
2017-03-11T06:53:07.076Z,0
2017-03-11T06:54:20.756Z,0
2017-03-11T06:55:34.503Z,0
2017-03-11T06:56:47.588Z,0
2017-03-11T06:58:01.292Z,0
2017-03-11T06:59:14.994Z,0
2017-03-11T07:00:28.693Z,0
2017-03-11T07:01:42.397Z,0
2017-03-11T07:02:56.079Z,0
2017-03-11T07:04:09.910Z,0
2017-03-11T07:05:22.980Z,0
2017-03-11T07:06:36.708Z,0
2017-03-11T07:07:50.405Z,0
2017-03-11T07:09:04.123Z,0
2017-03-11T07:10:17.902Z,0
2017-03-11T07:11:31.599Z,0
2017-03-11T07:12:45.269Z,0
2017-03-11T07:13:58.974Z,0
2017-03-11T07:15:12.682Z,0
2017-03-11T07:16:26.399Z,0
2017-03-11T07:17:39.484Z,0
2017-03-11T07:18:53.163Z,0
2017-03-11T07:20:06.269Z,0
2017-03-11T07:21:19.348Z,0
2017-03-11T07:22:32.436Z,0
2017-03-11T07:23:46.150Z,0
2017-03-11T07:24:59.844Z,0
2017-03-11T07:26:13.542Z,0
2017-03-11T07:27:27.271Z,0
2017-03-11T07:28:40.962Z,0
2017-03-11T07:29:54.674Z,0
2017-03-11T07:31:08.371Z,0
2017-03-11T07:32:22.057Z,0
2017-03-11T07:33:35.771Z,0
2017-03-11T07:34:48.871Z,0
2017-03-11T07:36:02.576Z,0
2017-03-11T07:37:16.268Z,0
2017-03-11T07:38:29.956Z,0
2017-03-11T07:39:42.455Z,0
2017-03-11T07:40:56.108Z,0
2017-03-11T07:42:09.830Z,0
2017-03-11T07:43:22.947Z,0
2017-03-11T07:44:36.647Z,0
2017-03-11T07:45:50.319Z,0
2017-03-11T07:47:04.020Z,0
2017-03-11T07:48:17.688Z,0
2017-03-11T07:49:31.369Z,0
2017-03-11T07:50:45.077Z,0
2017-03-11T07:51:58.773Z,0
2017-03-11T07:53:12.469Z,0
2017-03-11T07:54:25.549Z,0
2017-03-11T07:55:39.214Z,0
2017-03-11T07:56:52.313Z,0
2017-03-11T07:58:05.978Z,0
2017-03-11T07:59:19.067Z,0
2017-03-11T08:00:32.753Z,0
2017-03-11T08:01:46.458Z,0
2017-03-11T08:03:00.187Z,0
2017-03-11T08:04:13.926Z,0
2017-03-11T08:05:27.656Z,0
2017-03-11T08:06:41.365Z,0
2017-03-11T08:07:53.842Z,0
2017-03-11T08:09:07.594Z,0
2017-03-11T08:10:21.286Z,0
2017-03-11T08:11:34.979Z,0
2017-03-11T08:12:48.677Z,0
2017-03-11T08:14:02.363Z,0
2017-03-11T08:15:16.078Z,0
2017-03-11T08:16:29.763Z,0
2017-03-11T08:17:43.491Z,0
2017-03-11T08:18:57.200Z,0
2017-03-11T08:20:10.874Z,0
2017-03-11T08:21:24.649Z,0
2017-03-11T08:22:38.337Z,0
2017-03-11T08:23:52.018Z,0
2017-03-11T08:25:05.696Z,0
2017-03-11T08:26:18.772Z,0
2017-03-11T08:27:32.497Z,0
2017-03-11T08:28:46.221Z,0
2017-03-11T08:30:00.226Z,0
2017-03-11T08:31:13.918Z,0
2017-03-11T08:32:27.604Z,0
2017-03-11T08:33:41.315Z,0
2017-03-11T08:34:54.993Z,0
2017-03-11T08:36:08.109Z,0
2017-03-11T08:37:21.810Z,0
2017-03-11T08:38:35.535Z,0
2017-03-11T08:39:49.259Z,0
2017-03-11T08:41:02.945Z,0
2017-03-11T08:42:16.036Z,0
2017-03-11T08:43:29.713Z,0
2017-03-11T08:44:42.801Z,0
2017-03-11T08:45:56.486Z,0
2017-03-11T08:47:10.171Z,0
2017-03-11T08:48:23.839Z,0
2017-03-11T08:49:37.519Z,0
2017-03-11T08:50:50.585Z,0
2017-03-11T08:52:04.322Z,0
2017-03-11T08:53:18.039Z,0
2017-03-11T08:54:31.791Z,0
2017-03-11T08:55:45.487Z,0
2017-03-11T08:56:59.167Z,0
2017-03-11T08:58:12.828Z,0
2017-03-11T08:59:26.542Z,0
2017-03-11T09:00:40.253Z,0
2017-03-11T09:01:53.933Z,5
2017-03-11T09:03:07.617Z,5
2017-03-11T09:04:21.316Z,5
2017-03-11T09:05:35.003Z,5
2017-03-11T09:06:48.691Z,10
2017-03-11T09:08:02.373Z,10
2017-03-11T09:09:16.098Z,15
2017-03-11T09:10:29.796Z,15
2017-03-11T09:11:43.510Z,20
2017-03-11T09:12:57.211Z,25
2017-03-11T09:14:10.938Z,30
2017-03-11T09:15:24.695Z,30
2017-03-11T09:16:38.352Z,35
2017-03-11T09:17:51.467Z,40
2017-03-11T09:19:05.168Z,50
2017-03-11T09:20:18.880Z,65
2017-03-11T09:21:32.583Z,70
2017-03-11T09:22:45.662Z,80
2017-03-11T09:23:58.768Z,80
2017-03-11T09:25:12.474Z,90
2017-03-11T09:26:26.163Z,95
2017-03-11T09:27:39.262Z,100
2017-03-11T09:28:52.928Z,100
2017-03-11T09:30:06.657Z,105
2017-03-11T09:31:20.347Z,110
2017-03-11T09:32:33.414Z,115
2017-03-11T09:33:47.101Z,125
2017-03-11T09:35:00.781Z,135
2017-03-11T09:36:14.472Z,150
2017-03-11T09:37:28.156Z,185
2017-03-11T09:38:41.850Z,205
2017-03-11T09:39:55.534Z,215
2017-03-11T09:41:09.239Z,230
2017-03-11T09:42:22.939Z,215
2017-03-11T09:43:36.023Z,225
2017-03-11T09:44:49.720Z,245
2017-03-11T09:46:03.417Z,270
2017-03-11T09:47:17.113Z,300
2017-03-11T09:48:30.810Z,350
2017-03-11T09:49:44.538Z,390
2017-03-11T09:50:58.224Z,420
2017-03-11T09:52:11.311Z,440
2017-03-11T09:53:25.001Z,470
2017-03-11T09:54:38.736Z,455
2017-03-11T09:55:51.817Z,455
2017-03-11T09:57:04.948Z,475
2017-03-11T09:58:18.631Z,490
2017-03-11T09:59:32.324Z,515
2017-03-11T10:00:45.997Z,515
2017-03-11T10:01:59.696Z,535
2017-03-11T10:03:13.397Z,550
2017-03-11T10:04:27.102Z,555
2017-03-11T10:05:40.811Z,610
2017-03-11T10:06:54.504Z,650
2017-03-11T10:08:08.230Z,670
2017-03-11T10:09:21.919Z,485
2017-03-11T10:10:35.005Z,465
2017-03-11T10:11:48.106Z,470
2017-03-11T10:13:01.789Z,485
2017-03-11T10:14:15.489Z,530
2017-03-11T10:15:29.187Z,645
2017-03-11T10:16:42.346Z,650
2017-03-11T10:17:55.435Z,720
2017-03-11T10:19:09.155Z,830
2017-03-11T10:20:22.863Z,765
2017-03-11T10:21:35.989Z,765
2017-03-11T10:22:49.669Z,775
2017-03-11T10:24:03.348Z,705
2017-03-11T10:25:17.050Z,820
2017-03-11T10:26:30.736Z,825
2017-03-11T10:27:44.393Z,750
2017-03-11T10:28:58.098Z,910
2017-03-11T10:30:11.789Z,1030
2017-03-11T10:31:24.291Z,1100
2017-03-11T10:32:37.976Z,1100
2017-03-11T10:33:51.701Z,1140
2017-03-11T10:35:05.421Z,965
2017-03-11T10:36:19.115Z,1125
2017-03-11T10:37:32.796Z,1040
2017-03-11T10:38:46.497Z,1205
2017-03-11T10:40:00.176Z,1270
2017-03-11T10:41:13.301Z,1195
2017-03-11T10:42:26.993Z,985
2017-03-11T10:43:40.682Z,1005
2017-03-11T10:44:54.365Z,1200
2017-03-11T10:46:07.424Z,1245
2017-03-11T10:47:21.101Z,1280
2017-03-11T10:48:34.806Z,1225
2017-03-11T10:49:47.929Z,1010
2017-03-11T10:51:01.608Z,1005
2017-03-11T10:52:14.705Z,1290
2017-03-11T10:53:28.386Z,1355
2017-03-11T10:54:42.090Z,1060
2017-03-11T10:55:55.792Z,1020
2017-03-11T10:57:09.522Z,1330
2017-03-11T10:58:23.211Z,1435
2017-03-11T10:59:36.864Z,1475
2017-03-11T11:00:50.559Z,1555
2017-03-11T11:02:04.277Z,1660
2017-03-11T11:03:17.973Z,1280
2017-03-11T11:04:31.687Z,1660
2017-03-11T11:05:45.396Z,1675
2017-03-11T11:06:59.063Z,1695
2017-03-11T11:08:12.741Z,1605
2017-03-11T11:09:26.433Z,1565
2017-03-11T11:10:40.105Z,1550
2017-03-11T11:11:53.829Z,1325
2017-03-11T11:13:07.513Z,1595
2017-03-11T11:14:21.185Z,1690
2017-03-11T11:15:34.903Z,1650
2017-03-11T11:16:48.582Z,1610
2017-03-11T11:18:02.283Z,1605
2017-03-11T11:19:15.963Z,1120
2017-03-11T11:20:29.647Z,1160
2017-03-11T11:21:43.361Z,1470
2017-03-11T11:22:57.038Z,1820
2017-03-11T11:24:10.709Z,2055
2017-03-11T11:25:24.396Z,1155
2017-03-11T11:26:38.116Z,1025
2017-03-11T11:27:51.209Z,995
2017-03-11T11:29:04.928Z,1555
2017-03-11T11:30:18.622Z,1020
2017-03-11T11:31:32.333Z,905
2017-03-11T11:32:45.430Z,1010
2017-03-11T11:33:59.146Z,1460
2017-03-11T11:35:12.839Z,2285
2017-03-11T11:36:25.977Z,2360
2017-03-11T11:37:39.671Z,2085
2017-03-11T11:38:53.340Z,2280
2017-03-11T11:40:07.050Z,2410
2017-03-11T11:41:20.775Z,2405
2017-03-11T11:42:34.482Z,2550
2017-03-11T11:43:48.142Z,2485
2017-03-11T11:45:01.255Z,2545
2017-03-11T11:46:14.356Z,2365
2017-03-11T11:47:27.461Z,1505
2017-03-11T11:48:41.176Z,1455
2017-03-11T11:49:54.908Z,2025
2017-03-11T11:51:08.616Z,2200
2017-03-11T11:52:22.321Z,1265
2017-03-11T11:53:36.033Z,1250
2017-03-11T11:54:49.756Z,1745
2017-03-11T11:56:03.459Z,2635
2017-03-11T11:57:17.215Z,2580
2017-03-11T11:58:30.936Z,1730
2017-03-11T11:59:44.047Z,1630
2017-03-11T12:00:57.769Z,1575
2017-03-11T12:02:11.480Z,2345
2017-03-11T12:03:24.612Z,2495
2017-03-11T12:04:38.272Z,2735
2017-03-11T12:05:51.382Z,2665
2017-03-11T12:07:05.071Z,2725
2017-03-11T12:08:18.795Z,2805
2017-03-11T12:09:32.492Z,2770
2017-03-11T12:10:46.221Z,2885
2017-03-11T12:11:59.968Z,3065
2017-03-11T12:13:13.725Z,3005
2017-03-11T12:14:27.404Z,3265
2017-03-11T12:15:41.119Z,3275
2017-03-11T12:16:54.803Z,3125
2017-03-11T12:18:07.915Z,2300
2017-03-11T12:19:21.058Z,1380
2017-03-11T12:20:34.792Z,1925
2017-03-11T12:21:48.511Z,2810
2017-03-11T12:23:01.023Z,1815
2017-03-11T12:24:14.720Z,2400
2017-03-11T12:25:28.420Z,1455
2017-03-11T12:26:41.528Z,1270
2017-03-11T12:27:54.634Z,1375
2017-03-11T12:29:07.766Z,1510
2017-03-11T12:30:21.454Z,1730
2017-03-11T12:31:35.164Z,1510
2017-03-11T12:32:48.310Z,1490
2017-03-11T12:34:02.013Z,1580
2017-03-11T12:35:15.099Z,1370
2017-03-11T12:36:28.198Z,1280
2017-03-11T12:37:41.897Z,1195
2017-03-11T12:38:55.656Z,1230
2017-03-11T12:40:09.384Z,1395
2017-03-11T12:41:23.102Z,1655
2017-03-11T12:42:36.811Z,1945
2017-03-11T12:43:50.497Z,2370
2017-03-11T12:45:04.221Z,1460
2017-03-11T12:46:17.346Z,1470
2017-03-11T13:18:34.362Z,3715
2017-03-11T13:19:48.076Z,3770
2017-03-11T13:21:01.795Z,3780
2017-03-11T13:22:15.524Z,3580
2017-03-11T13:23:29.236Z,3590
2017-03-11T13:24:42.942Z,3820
2017-03-11T13:25:56.639Z,3745
2017-03-11T13:27:10.367Z,2340
2017-03-11T13:28:23.465Z,1725
2017-03-11T13:29:37.153Z,1810
2017-03-11T13:30:50.827Z,3675
2017-03-11T13:32:03.933Z,4125
2017-03-11T13:33:17.653Z,4180
2017-03-11T13:34:30.777Z,3905
2017-03-11T13:35:44.502Z,3895
2017-03-11T13:36:58.219Z,4125
2017-03-11T13:38:11.935Z,3350
2017-03-11T13:39:25.643Z,3585
2017-03-11T13:40:39.368Z,3865
2017-03-11T13:41:53.086Z,3915
2017-03-11T13:43:06.842Z,3865
2017-03-11T13:44:20.593Z,3890
2017-03-11T13:45:33.695Z,2770
2017-03-11T13:46:46.812Z,3790
2017-03-11T13:48:00.548Z,2475
2017-03-11T13:49:14.227Z,1995
2017-03-11T13:50:27.948Z,2995
2017-03-11T13:51:41.659Z,3890
2017-03-11T13:52:55.379Z,3810
2017-03-11T13:54:09.097Z,3760
2017-03-11T13:55:22.829Z,3575
2017-03-11T13:56:36.610Z,3765
2017-03-11T13:57:50.311Z,3855
2017-03-11T13:59:04.048Z,3940
2017-03-11T14:00:17.759Z,4100
2017-03-11T14:01:31.482Z,3910
2017-03-11T14:02:45.215Z,2565
2017-03-11T14:03:58.928Z,1740
2017-03-11T14:05:12.647Z,3555
2017-03-11T14:06:26.355Z,3380
2017-03-11T14:07:40.070Z,3640
2017-03-11T14:08:53.793Z,3550
2017-03-11T14:10:06.319Z,3665
2017-03-11T14:11:19.415Z,3695
2017-03-11T14:12:33.144Z,4010
2017-03-11T14:13:46.876Z,3840
2017-03-11T14:14:59.967Z,3615
2017-03-11T14:16:13.691Z,2775
2017-03-11T14:17:27.417Z,3590
2017-03-11T14:18:41.119Z,3480
2017-03-11T14:19:54.839Z,4190
2017-03-11T14:21:08.548Z,4225
2017-03-11T14:22:22.292Z,3295
2017-03-11T14:23:36.006Z,2010
2017-03-11T14:24:49.132Z,2635
2017-03-11T14:26:02.855Z,4220
2017-03-11T14:27:16.595Z,4140
2017-03-11T14:28:29.759Z,1890
2017-03-11T14:29:42.851Z,2715
2017-03-11T14:30:55.967Z,3350
2017-03-11T14:32:09.785Z,2160
2017-03-11T14:33:23.554Z,2970
2017-03-11T14:34:37.298Z,3215
2017-03-11T14:35:50.423Z,2710
2017-03-11T14:37:04.185Z,3585
2017-03-11T14:38:17.901Z,3680
2017-03-11T14:39:31.619Z,3530
2017-03-11T14:40:45.300Z,3210
2017-03-11T14:41:59.073Z,3815
2017-03-11T14:43:12.779Z,3770
2017-03-11T14:44:25.857Z,3565
2017-03-11T14:45:38.957Z,3460
2017-03-11T14:46:52.669Z,3895
2017-03-11T14:48:06.367Z,3895
2017-03-11T14:49:20.056Z,3015
2017-03-11T14:50:33.778Z,3975
2017-03-11T14:51:47.857Z,3280
2017-03-11T14:53:01.689Z,2330
2017-03-11T14:54:15.413Z,1865
2017-03-11T14:55:29.106Z,1965
2017-03-11T14:56:42.254Z,3040
2017-03-11T14:57:55.996Z,1795
2017-03-11T14:59:09.701Z,2135
2017-03-11T15:00:22.855Z,1925
2017-03-11T15:01:36.572Z,2025
2017-03-11T15:02:50.313Z,2080
2017-03-11T15:04:04.064Z,1770
2017-03-11T15:05:17.786Z,1740
2017-03-11T15:06:31.513Z,2570
2017-03-11T15:07:45.218Z,1690
2017-03-11T15:08:58.936Z,1625
2017-03-11T15:10:11.466Z,1590
2017-03-11T15:11:24.611Z,1655
2017-03-11T15:12:37.765Z,1675
2017-03-11T15:13:50.952Z,1955
2017-03-11T15:15:04.055Z,1630
2017-03-11T15:16:17.754Z,3035
2017-03-11T15:17:30.864Z,3105
2017-03-11T15:18:44.625Z,3135
2017-03-11T15:19:58.340Z,3175
2017-03-11T15:21:12.057Z,3300
2017-03-11T15:22:25.781Z,3315
2017-03-11T15:23:39.487Z,2920
2017-03-11T15:24:53.199Z,1785
2017-03-11T15:26:06.921Z,1955
2017-03-11T15:27:20.658Z,2730
2017-03-11T15:28:33.181Z,2950
2017-03-11T15:29:46.871Z,1550
2017-03-11T15:31:00.581Z,1480
2017-03-11T15:32:13.690Z,1460
2017-03-11T15:33:27.399Z,1455
2017-03-11T15:34:40.503Z,1495
2017-03-11T15:35:54.200Z,1515
2017-03-11T15:37:07.933Z,1600
2017-03-11T15:38:21.669Z,1735
2017-03-11T15:39:35.375Z,2170
2017-03-11T15:40:49.058Z,3945
2017-03-11T15:42:02.785Z,3945
2017-03-11T15:43:16.527Z,4085
2017-03-11T15:44:30.220Z,4080
2017-03-11T15:45:43.933Z,4200
2017-03-11T15:46:57.617Z,3825
2017-03-11T15:48:11.368Z,3880
2017-03-11T15:49:23.337Z,3470
2017-03-11T15:50:37.031Z,3820
2017-03-11T15:51:50.762Z,3750
2017-03-11T15:53:04.475Z,2150
2017-03-11T15:54:17.694Z,3915
2017-03-11T15:55:31.484Z,3860
2017-03-11T15:56:44.604Z,4005
2017-03-11T15:59:07.217Z,4000
2017-03-11T16:00:21.153Z,4050
2017-03-11T16:01:34.918Z,4100
2017-03-11T16:02:48.629Z,3640
2017-03-11T16:04:02.321Z,3250
2017-03-11T16:05:16.037Z,3640
2017-03-11T16:06:29.872Z,3830
2017-03-11T16:07:43.005Z,3880
2017-03-11T16:08:56.735Z,3930
2017-03-11T16:10:10.580Z,4210
2017-03-11T16:11:24.297Z,4125
2017-03-11T16:12:38.095Z,3845
2017-03-11T16:13:51.211Z,4170
2017-03-11T16:15:04.933Z,4070
2017-03-11T16:16:18.904Z,4115
2017-03-11T16:17:32.661Z,4230
2017-03-11T16:18:46.360Z,3945
2017-03-11T16:20:00.096Z,3130
2017-03-11T16:21:13.240Z,2840
2017-03-11T16:22:27.230Z,2915
2017-03-11T16:23:41.029Z,2370
2017-03-11T16:24:54.733Z,1965
2017-03-11T16:26:08.495Z,1900
2017-03-11T16:27:21.633Z,2100
2017-03-11T16:28:35.014Z,2820
2017-03-11T16:29:48.746Z,2375
2017-03-11T16:31:01.854Z,2660
2017-03-11T16:32:15.975Z,3455
2017-03-11T16:33:29.763Z,3230
2017-03-11T16:34:43.527Z,2460
2017-03-11T16:35:56.653Z,2715
2017-03-11T16:37:10.369Z,2725
2017-03-11T16:38:24.480Z,3490
2017-03-11T16:39:37.705Z,3520
2017-03-11T16:40:50.219Z,3790
2017-03-11T16:42:03.987Z,3700
2017-03-11T16:43:17.779Z,3800
2017-03-11T16:44:31.994Z,3330
2017-03-11T16:45:45.123Z,2690
2017-03-11T16:46:59.190Z,2210
2017-03-11T16:48:13.275Z,1940
2017-03-11T16:49:27.111Z,1890
2017-03-11T16:50:41.012Z,1920
2017-03-11T16:51:54.710Z,1910
2017-03-11T16:53:07.862Z,2000
2017-03-11T16:54:21.866Z,2005
2017-03-11T16:55:35.628Z,1935
2017-03-11T16:56:49.359Z,1890
2017-03-11T16:58:02.464Z,1980
2017-03-11T16:59:16.205Z,2030
2017-03-11T17:00:30.273Z,1935
2017-03-11T17:01:44.014Z,1930
2017-03-11T17:02:57.717Z,1700
2017-03-11T17:04:11.709Z,1665
2017-03-11T17:05:25.502Z,1655
2017-03-11T17:06:39.373Z,1645
2017-03-11T17:07:53.110Z,1630
2017-03-11T17:09:06.263Z,1640
2017-03-11T17:10:20.388Z,1630
2017-03-11T17:12:05.272Z,1615
2017-03-11T17:13:19.032Z,1575
2017-03-11T17:14:33.008Z,1550
2017-03-11T17:15:46.743Z,1530
2017-03-11T17:17:00.450Z,1485
2017-03-11T17:18:13.030Z,1435
2017-03-11T17:19:26.792Z,1410
2017-03-11T17:20:40.589Z,1415
2017-03-11T17:21:54.281Z,1455
2017-03-11T17:23:07.357Z,1475
2017-03-11T17:24:21.144Z,1480
2017-03-11T17:25:34.904Z,1455
2017-03-11T17:26:48.607Z,1460
2017-03-11T17:28:02.327Z,1455
2017-03-11T17:29:16.072Z,1440
2017-03-11T17:30:29.998Z,1420
2017-03-11T17:31:43.709Z,1435
2017-03-11T17:32:57.417Z,1495
2017-03-11T17:34:10.644Z,1615
2017-03-11T17:35:24.408Z,1900
2017-03-11T17:36:38.196Z,2190
2017-03-11T17:37:51.893Z,1905
2017-03-11T17:39:05.002Z,1665
2017-03-11T17:40:18.387Z,1490
2017-03-11T17:41:31.524Z,1515
2017-03-11T17:42:45.272Z,1590
2017-03-11T17:43:58.972Z,1645
2017-03-11T17:45:11.501Z,1670
2017-03-11T17:46:24.735Z,1660
2017-03-11T17:47:37.863Z,1670
2017-03-11T17:48:51.605Z,1620
2017-03-11T17:50:05.367Z,1620
2017-03-11T17:51:18.479Z,1630